Time;durP1;ratioP1;P1;durP2;ratioP2;P2;SDS_P1;SDS_P2;PMS_P1;PMS_P2;Temp;Humidity;BMP_temperature;BMP_pressure;BME280_temperature;BME280_humidity;BME280_pressure;Samples;Min_cycle;Max_cycle;Signal;HPM_P1;HPM_P2
2021/06/05 00:00:56;;;;;;;43.65;36.88;;;20.10;92.10;;;;;;4936768;29;20272;-78
2021/06/05 00:03:23;;;;;;;50.30;40.85;;;20.10;92.20;;;;;;4920839;29;20035;-78
2021/06/05 00:05:58;;;;;;;51.22;42.45;;;20.10;92.20;;;;;;4936834;29;20034;-78
2021/06/05 00:08:27;;;;;;;47.00;39.90;;;20.10;92.40;;;;;;4938766;29;20024;-77
2021/06/05 00:10:56;;;;;;;49.53;41.15;;;20.10;92.30;;;;;;4937253;29;20032;-77
2021/06/05 00:13:29;;;;;;;47.67;40.13;;;20.10;92.30;;;;;;4937201;29;20028;-78
2021/06/05 00:15:56;;;;;;;43.22;36.63;;;20.10;92.20;;;;;;4920881;29;20028;-78
2021/06/05 00:18:22;;;;;;;57.90;45.10;;;20.10;92.20;;;;;;4921474;29;20587;-78
2021/06/05 00:20:48;;;;;;;46.08;38.08;;;20.10;92.20;;;;;;4920435;29;20169;-78
2021/06/05 00:23:18;;;;;;;44.65;37.35;;;20.00;92.50;;;;;;4920365;29;20118;-78
2021/06/05 00:25:46;;;;;;;50.72;39.10;;;20.00;92.20;;;;;;4937596;29;20163;-79
2021/06/05 00:28:11;;;;;;;41.42;35.35;;;20.00;92.20;;;;;;4938021;29;20129;-79
2021/06/05 00:30:37;;;;;;;45.90;38.22;;;20.00;92.20;;;;;;4938421;29;20150;-80
2021/06/05 00:33:04;;;;;;;55.13;41.10;;;20.00;92.20;;;;;;4921545;29;20457;-80
2021/06/05 00:35:31;;;;;;;49.00;41.80;;;20.00;92.40;;;;;;4921300;29;20019;-78
2021/06/05 00:37:57;;;;;;;49.03;41.30;;;20.10;92.50;;;;;;4921970;29;20024;-80
2021/06/05 00:40:28;;;;;;;48.92;42.15;;;20.10;92.50;;;;;;4920902;29;20440;-79
2021/06/05 00:42:55;;;;;;;50.15;42.63;;;20.10;92.60;;;;;;4920526;29;20038;-78
2021/06/05 00:45:23;;;;;;;40.55;35.15;;;20.10;92.50;;;;;;4929596;29;20125;-78
2021/06/05 00:47:49;;;;;;;51.65;43.22;;;20.00;92.50;;;;;;4920595;29;20028;-77
2021/06/05 00:50:16;;;;;;;51.83;43.10;;;20.10;92.70;;;;;;4920020;29;20074;-77
2021/06/05 00:52:44;;;;;;;60.58;50.38;;;20.10;92.70;;;;;;4919694;29;20091;-76
2021/06/05 00:55:13;;;;;;;64.60;50.88;;;20.10;92.70;;;;;;4919631;29;20054;-76
2021/06/05 00:57:39;;;;;;;61.17;50.25;;;20.00;92.60;;;;;;4935989;29;20146;-77
2021/06/05 01:00:28;;;;;;;48.30;43.00;;;20.00;92.50;;;;;;4922978;29;20035;-77
2021/06/05 01:02:57;;;;;;;53.00;46.28;;;19.90;92.40;;;;;;4937562;29;20046;-76
2021/06/05 01:05:22;;;;;;;44.92;39.95;;;19.90;92.30;;;;;;4936836;29;20038;-76
2021/06/05 01:07:49;;;;;;;48.80;39.90;;;19.80;92.60;;;;;;4919621;29;20024;-77
2021/06/05 01:10:26;;;;;;;67.25;56.03;;;19.80;92.30;;;;;;4935505;29;20106;-78
2021/06/05 01:13:06;;;;;;;66.88;56.72;;;19.80;92.20;;;;;;4935069;29;20023;-78
2021/06/05 01:15:58;;;;;;;65.15;55.20;;;19.70;92.40;;;;;;4935868;29;20043;-79
2021/06/05 01:18:36;;;;;;;58.65;50.65;;;19.70;92.40;;;;;;4926293;29;20494;-79
2021/06/05 01:21:29;;;;;;;66.18;53.17;;;19.60;92.40;;;;;;4933583;29;20053;-80
2021/06/05 01:24:37;;;;;;;42.40;36.70;;;19.60;92.10;;;;;;4937546;29;20031;-78
2021/06/05 01:27:10;;;;;;;50.85;42.47;;;19.60;92.10;;;;;;4937643;29;20031;-79
2021/06/05 01:29:41;;;;;;;67.47;56.42;;;19.60;92.20;;;;;;4922651;29;20136;-78
2021/06/05 01:32:10;;;;;;;66.65;57.95;;;19.50;92.40;;;;;;4919167;29;20024;-79
2021/06/05 01:34:40;;;;;;;63.83;56.53;;;19.50;92.50;;;;;;4935282;29;20030;-78
2021/06/05 01:37:08;;;;;;;73.78;64.45;;;19.50;92.70;;;;;;4918881;29;20080;-78
2021/06/05 01:39:37;;;;;;;73.50;63.22;;;19.40;92.80;;;;;;4934971;29;20032;-79
2021/06/05 01:42:07;;;;;;;75.63;63.90;;;19.40;92.90;;;;;;4918679;29;20098;-79
2021/06/05 01:44:35;;;;;;;78.22;65.78;;;19.40;92.80;;;;;;4936775;29;20031;-79
2021/06/05 01:47:01;;;;;;;75.45;63.63;;;19.40;92.80;;;;;;4935730;29;20023;-79
2021/06/05 01:49:26;;;;;;;80.88;68.95;;;19.40;92.90;;;;;;4919760;29;20062;-80
2021/06/05 01:51:59;;;;;;;79.35;65.03;;;19.40;92.80;;;;;;4919542;29;20375;-79
2021/06/05 01:54:34;;;;;;;39.25;33.80;;;19.40;92.40;;;;;;4921004;29;20042;-80
2021/06/05 01:57:10;;;;;;;69.78;59.55;;;19.40;91.90;;;;;;4948806;29;20079;-77
2021/06/05 01:59:36;;;;;;;88.18;73.53;;;19.30;91.90;;;;;;4945295;29;20054;-79
2021/06/05 02:02:03;;;;;;;84.93;66.90;;;19.30;92.30;;;;;;4936213;29;20031;-78
2021/06/05 02:04:28;;;;;;;82.80;70.50;;;19.30;92.00;;;;;;4935211;29;20123;-77
2021/06/05 02:06:55;;;;;;;91.07;75.72;;;19.20;91.90;;;;;;4919469;29;20146;-78
2021/06/05 02:09:27;;;;;;;90.22;71.60;;;19.20;91.80;;;;;;4918507;29;20030;-78
2021/06/05 02:11:58;;;;;;;81.25;65.75;;;19.20;91.70;;;;;;4918292;29;20035;-78
2021/06/05 02:14:37;;;;;;;71.10;59.70;;;19.20;91.80;;;;;;4934598;29;20036;-79
2021/06/05 02:17:06;;;;;;;49.28;40.60;;;19.10;91.90;;;;;;4918493;29;20035;-77
2021/06/05 02:19:35;;;;;;;66.78;56.55;;;19.10;91.00;;;;;;4918707;29;20024;-77
2021/06/05 02:22:05;;;;;;;95.35;75.07;;;19.10;91.30;;;;;;4918474;29;20074;-77
2021/06/05 02:24:35;;;;;;;83.97;66.33;;;19.10;91.20;;;;;;4934405;29;20024;-78
2021/06/05 02:27:03;;;;;;;91.05;69.82;;;19.00;91.10;;;;;;4920044;29;20371;-78
2021/06/05 02:29:33;;;;;;;98.57;78.00;;;18.90;91.20;;;;;;4938809;29;20026;-78
2021/06/05 02:31:59;;;;;;;93.97;72.72;;;18.90;91.40;;;;;;4941677;29;20116;-78
2021/06/05 02:34:28;;;;;;;101.53;78.50;;;18.80;91.60;;;;;;4919510;29;20083;-78
2021/06/05 02:36:57;;;;;;;106.03;79.53;;;18.80;91.20;;;;;;4918383;29;20027;-78
2021/06/05 02:39:23;;;;;;;96.38;75.22;;;18.70;91.20;;;;;;4918889;29;20095;-78
2021/06/05 02:41:51;;;;;;;112.13;81.38;;;18.60;91.40;;;;;;4918354;29;20027;-78
2021/06/05 02:44:18;;;;;;;99.95;76.25;;;18.60;91.30;;;;;;4937424;29;20035;-78
2021/06/05 02:46:45;;;;;;;88.90;67.47;;;18.50;91.30;;;;;;4923117;29;20082;-78
2021/06/05 02:49:20;;;;;;;110.13;78.95;;;18.50;90.90;;;;;;4923590;29;20090;-78
2021/06/05 02:51:54;;;;;;;117.47;83.32;;;18.50;91.30;;;;;;4940868;29;20031;-78
2021/06/05 02:54:22;;;;;;;103.30;76.13;;;18.40;91.30;;;;;;4922183;29;20024;-77
2021/06/05 02:56:48;;;;;;;106.28;75.20;;;18.40;91.20;;;;;;4922085;29;20489;-78
2021/06/05 02:59:13;;;;;;;114.82;80.25;;;18.30;91.50;;;;;;4922405;29;20026;-78
2021/06/05 03:01:39;;;;;;;128.43;86.35;;;18.30;91.40;;;;;;4939038;29;20388;-78
2021/06/05 03:04:05;;;;;;;105.07;70.18;;;18.30;91.40;;;;;;4921775;29;20028;-78
2021/06/05 03:06:32;;;;;;;127.38;88.60;;;18.30;91.60;;;;;;4922802;29;20020;-78
2021/06/05 03:08:58;;;;;;;50.88;36.40;;;18.30;91.60;;;;;;4939106;29;20035;-78
2021/06/05 03:11:25;;;;;;;105.93;72.47;;;18.20;91.00;;;;;;4921546;29;20050;-78
2021/06/05 03:13:52;;;;;;;132.50;89.80;;;18.20;91.20;;;;;;4937865;29;20035;-78
2021/06/05 03:16:18;;;;;;;119.88;85.30;;;18.20;91.80;;;;;;4938899;29;20461;-78
2021/06/05 03:18:45;;;;;;;124.88;86.32;;;18.20;91.60;;;;;;4922089;29;20433;-78
2021/06/05 03:21:16;;;;;;;116.40;79.38;;;18.20;91.60;;;;;;4937392;29;20039;-78
2021/06/05 03:23:41;;;;;;;125.95;88.80;;;18.10;91.50;;;;;;4922159;29;20027;-77
2021/06/05 03:26:07;;;;;;;104.40;72.28;;;18.10;91.90;;;;;;4921478;29;20027;-77
2021/06/05 03:28:34;;;;;;;113.93;78.22;;;18.10;91.70;;;;;;4922123;29;20024;-78
2021/06/05 03:31:01;;;;;;;137.02;90.25;;;18.00;91.80;;;;;;4921596;29;20020;-78
2021/06/05 03:33:27;;;;;;;133.18;85.95;;;18.00;91.90;;;;;;4922065;29;20038;-77
2021/06/05 03:35:56;;;;;;;140.98;89.15;;;18.00;91.90;;;;;;4924941;29;20127;-77
2021/06/05 03:38:23;;;;;;;143.18;89.78;;;17.90;92.00;;;;;;4937774;29;20024;-77
2021/06/05 03:40:49;;;;;;;61.60;41.40;;;17.90;92.10;;;;;;4925494;29;20030;-76
2021/06/05 03:43:14;;;;;;;68.63;46.38;;;17.80;92.00;;;;;;4922619;29;20379;-78
2021/06/05 03:45:40;;;;;;;127.50;85.00;;;17.80;91.70;;;;;;4939101;29;20103;-76
2021/06/05 03:48:07;;;;;;;125.05;77.95;;;17.80;92.00;;;;;;4937328;29;20032;-78
2021/06/05 03:50:36;;;;;;;132.95;83.82;;;17.80;92.00;;;;;;4937815;29;20484;-77
2021/06/05 03:53:02;;;;;;;150.88;88.03;;;17.80;92.20;;;;;;4920597;29;20496;-77
2021/06/05 03:55:27;;;;;;;116.00;72.03;;;17.80;92.30;;;;;;4920332;29;20055;-77
2021/06/05 03:57:58;;;;;;;137.90;82.70;;;17.80;92.30;;;;;;4938135;29;20468;-78
2021/06/05 04:00:28;;;;;;;142.32;84.57;;;17.80;92.30;;;;;;4922470;29;20187;-77
2021/06/05 04:02:53;;;;;;;112.28;69.13;;;17.80;92.40;;;;;;4942905;29;20028;-76
2021/06/05 04:05:19;;;;;;;147.50;86.50;;;17.80;92.00;;;;;;4940728;29;20103;-77
2021/06/05 04:07:45;;;;;;;149.15;86.47;;;17.80;92.60;;;;;;4937940;29;20098;-77
2021/06/05 04:10:13;;;;;;;128.95;75.90;;;17.80;92.50;;;;;;4936946;29;20059;-78
2021/06/05 04:12:39;;;;;;;127.43;77.65;;;17.80;92.50;;;;;;4920783;29;20035;-78
2021/06/05 04:15:08;;;;;;;116.70;69.75;;;17.80;92.60;;;;;;4938240;29;20063;-77
2021/06/05 04:17:33;;;;;;;141.13;82.25;;;17.80;92.20;;;;;;4920533;29;20153;-77
2021/06/05 04:19:59;;;;;;;127.75;75.93;;;17.80;92.30;;;;;;4938332;29;20495;-78
2021/06/05 04:22:25;;;;;;;144.32;86.00;;;17.70;92.40;;;;;;4920813;29;20039;-77
2021/06/05 04:24:50;;;;;;;109.55;60.60;;;17.80;92.50;;;;;;4920314;29;20023;-77
2021/06/05 04:27:16;;;;;;;95.25;57.15;;;17.70;92.40;;;;;;4920359;29;20024;-78
2021/06/05 04:29:42;;;;;;;150.40;85.25;;;17.80;92.30;;;;;;4937597;29;20035;-77
2021/06/05 04:32:08;;;;;;;143.57;84.40;;;17.80;92.40;;;;;;4920559;29;20035;-76
2021/06/05 04:34:34;;;;;;;134.48;80.00;;;17.80;92.40;;;;;;4938323;29;20036;-76
2021/06/05 04:37:00;;;;;;;115.88;68.10;;;17.90;92.50;;;;;;4920766;29;20477;-76
2021/06/05 04:39:26;;;;;;;96.00;58.97;;;17.90;92.10;;;;;;4936775;29;20058;-78
2021/06/05 04:41:51;;;;;;;122.45;74.82;;;17.90;92.10;;;;;;4922361;29;20111;-77
2021/06/05 04:44:17;;;;;;;123.78;74.82;;;17.90;92.20;;;;;;4936396;29;20396;-77
2021/06/05 04:46:43;;;;;;;145.30;82.82;;;17.90;92.30;;;;;;4938355;29;20516;-77
2021/06/05 04:49:08;;;;;;;137.05;81.57;;;18.00;92.40;;;;;;4919609;29;20024;-76
2021/06/05 04:51:36;;;;;;;128.82;75.35;;;18.00;92.40;;;;;;4937324;29;20031;-77
2021/06/05 04:54:02;;;;;;;101.28;59.50;;;18.10;92.50;;;;;;4920701;29;20042;-78
2021/06/05 04:56:51;;;;;;;108.45;66.95;;;18.10;92.20;;;;;;4931473;29;20301;-77
2021/06/05 04:59:19;;;;;;;110.27;66.13;;;18.10;92.10;;;;;;4918674;29;20039;-77
2021/06/05 05:01:45;;;;;;;57.65;35.72;;;18.10;92.00;;;;;;4918956;29;20473;-77
2021/06/05 05:04:11;;;;;;;46.00;29.63;;;18.20;91.70;;;;;;4918094;29;20083;-77
2021/06/05 05:06:37;;;;;;;63.00;41.65;;;18.20;91.60;;;;;;4917419;29;20080;-77
2021/06/05 05:09:09;;;;;;;63.03;39.47;;;18.30;91.30;;;;;;4902553;29;20036;-78
2021/06/05 05:11:34;;;;;;;73.15;45.58;;;18.30;91.20;;;;;;4901831;29;20028;-78
2021/06/05 05:14:00;;;;;;;72.32;45.10;;;18.30;91.40;;;;;;4918398;29;20087;-77
2021/06/05 05:16:26;;;;;;;66.38;40.80;;;18.30;91.30;;;;;;4902639;29;20050;-78
2021/06/05 05:18:53;;;;;;;56.58;34.42;;;18.30;91.40;;;;;;4901078;29;20031;-78
2021/06/05 05:21:20;;;;;;;78.22;51.22;;;18.30;91.40;;;;;;4918450;29;20032;-78
2021/06/05 05:23:46;;;;;;;79.97;48.45;;;18.40;91.30;;;;;;4901620;29;20024;-78
2021/06/05 05:26:12;;;;;;;60.65;37.97;;;18.40;91.30;;;;;;4901971;29;20039;-78
2021/06/05 05:28:38;;;;;;;61.35;36.28;;;18.40;91.20;;;;;;4918884;29;20024;-77
2021/06/05 05:31:10;;;;;;;57.88;36.45;;;18.40;91.20;;;;;;4918217;29;20429;-78
2021/06/05 05:33:38;;;;;;;86.53;51.50;;;18.50;91.20;;;;;;4901422;29;20024;-77
2021/06/05 05:36:07;;;;;;;86.93;53.75;;;18.50;91.30;;;;;;4901377;29;20156;-78
2021/06/05 05:38:33;;;;;;;84.35;50.30;;;18.60;91.20;;;;;;4917957;29;20024;-78
2021/06/05 05:40:58;;;;;;;76.88;48.60;;;18.60;91.20;;;;;;4917456;29;20024;-77
2021/06/05 05:43:24;;;;;;;81.90;50.70;;;18.50;91.20;;;;;;4901464;29;20465;-76
2021/06/05 05:45:49;;;;;;;80.30;49.88;;;18.60;91.30;;;;;;4901955;29;20115;-77
2021/06/05 05:48:16;;;;;;;89.35;55.13;;;18.60;91.10;;;;;;4918588;29;20024;-76
2021/06/05 05:50:44;;;;;;;85.95;52.85;;;18.60;91.30;;;;;;4900827;29;20091;-78
2021/06/05 05:53:11;;;;;;;83.70;51.53;;;18.70;91.10;;;;;;4901202;29;20473;-77
2021/06/05 05:55:36;;;;;;;73.80;45.00;;;18.70;91.00;;;;;;4915605;29;20020;-76
2021/06/05 05:58:11;;;;;;;89.20;53.38;;;18.70;91.10;;;;;;4917754;29;20065;-76
2021/06/05 06:00:39;;;;;;;91.97;54.28;;;18.70;91.00;;;;;;4936089;29;20591;-77
2021/06/05 06:03:05;;;;;;;90.13;56.63;;;18.80;90.90;;;;;;4919630;29;20031;-77
2021/06/05 06:05:31;;;;;;;85.10;52.72;;;18.80;90.90;;;;;;4920833;29;20047;-76
2021/06/05 06:07:57;;;;;;;87.15;55.03;;;18.80;90.90;;;;;;4950645;29;20052;-75
2021/06/05 06:10:24;;;;;;;80.80;51.03;;;18.80;90.80;;;;;;4941972;29;20027;-76
2021/06/05 06:12:50;;;;;;;78.65;48.90;;;18.90;90.60;;;;;;4918774;29;20070;-76
2021/06/05 06:15:20;;;;;;;79.70;49.88;;;18.90;90.70;;;;;;4918373;29;20024;-77
2021/06/05 06:17:46;;;;;;;73.95;47.17;;;18.90;91.00;;;;;;4935424;29;20032;-76
2021/06/05 06:20:30;;;;;;;75.72;46.55;;;19.00;90.70;;;;;;4936111;29;20051;-76
2021/06/05 06:22:56;;;;;;;70.95;44.80;;;19.00;90.60;;;;;;4936000;29;20031;-76
2021/06/05 06:25:25;;;;;;;60.78;38.03;;;19.00;90.40;;;;;;4918600;29;20051;-77
2021/06/05 06:27:51;;;;;;;57.57;35.83;;;19.10;90.20;;;;;;4936443;29;20030;-76
2021/06/05 06:30:21;;;;;;;54.75;35.10;;;19.10;89.20;;;;;;4934412;29;20031;-76
2021/06/05 06:32:52;;;;;;;63.70;43.17;;;19.20;90.00;;;;;;4922283;29;20433;-76
2021/06/05 06:35:22;;;;;;;60.30;38.45;;;19.20;90.10;;;;;;4937559;29;20030;-77
2021/06/05 06:37:49;;;;;;;62.58;41.13;;;19.30;90.10;;;;;;4918477;29;20028;-76
2021/06/05 06:40:16;;;;;;;56.80;39.42;;;19.30;90.30;;;;;;4935557;29;20024;-76
2021/06/05 06:42:42;;;;;;;52.65;34.00;;;19.40;90.10;;;;;;4934855;29;20028;-76
2021/06/05 06:45:08;;;;;;;46.95;31.48;;;19.30;89.80;;;;;;4919445;29;20509;-76
2021/06/05 06:47:40;;;;;;;50.25;32.03;;;19.30;90.00;;;;;;4919192;29;20500;-77
2021/06/05 06:50:08;;;;;;;49.20;33.95;;;19.30;90.10;;;;;;4935990;29;20028;-77
2021/06/05 06:52:34;;;;;;;42.50;27.90;;;19.30;90.00;;;;;;4934467;29;20157;-76
2021/06/05 06:55:00;;;;;;;47.55;32.42;;;19.30;90.00;;;;;;4936124;29;20058;-76
2021/06/05 06:57:26;;;;;;;50.05;35.63;;;19.30;90.00;;;;;;4935384;29;20404;-77
2021/06/05 06:59:52;;;;;;;45.78;31.73;;;19.30;89.90;;;;;;4936676;29;20032;-76
2021/06/05 07:02:18;;;;;;;32.58;19.65;;;19.30;89.70;;;;;;4934187;29;20038;-77
2021/06/05 07:04:44;;;;;;;19.02;13.15;;;19.40;89.00;;;;;;4934594;29;20036;-77
2021/06/05 07:07:09;;;;;;;41.13;28.58;;;19.40;88.00;;;;;;4934909;29;20024;-78
2021/06/05 07:09:35;;;;;;;40.20;27.65;;;19.50;88.30;;;;;;4934266;29;20020;-77
2021/06/05 07:12:03;;;;;;;44.20;30.40;;;19.50;88.90;;;;;;4934211;29;20465;-76
2021/06/05 07:14:28;;;;;;;34.63;23.42;;;19.50;89.00;;;;;;4934713;29;20039;-76
2021/06/05 07:16:54;;;;;;;14.77;10.07;;;19.50;88.50;;;;;;4934868;29;20384;-76
2021/06/05 07:19:20;;;;;;;18.83;14.90;;;19.50;86.70;;;;;;4934854;29;20056;-76
2021/06/05 07:21:46;;;;;;;15.93;11.07;;;19.60;84.80;;;;;;4934679;29;20171;-76
2021/06/05 07:24:12;;;;;;;15.52;10.85;;;19.70;83.80;;;;;;4936568;29;20477;-76
2021/06/05 07:26:39;;;;;;;33.42;25.25;;;19.80;84.60;;;;;;4936612;29;20043;-76
2021/06/05 07:29:08;;;;;;;36.47;26.92;;;19.80;85.00;;;;;;4934841;29;20082;-76
2021/06/05 07:31:37;;;;;;;34.50;24.95;;;19.90;87.30;;;;;;4921981;29;20471;-77
2021/06/05 07:34:02;;;;;;;37.08;24.38;;;20.00;86.80;;;;;;4939495;29;20055;-76
2021/06/05 07:36:33;;;;;;;33.72;25.90;;;20.00;86.10;;;;;;4939615;29;20437;-77
2021/06/05 07:38:59;;;;;;;37.70;25.70;;;19.90;87.10;;;;;;4922425;29;20075;-76
2021/06/05 07:41:25;;;;;;;34.45;25.35;;;19.90;87.40;;;;;;4937431;29;20035;-76
2021/06/05 07:43:51;;;;;;;34.33;25.52;;;19.90;87.30;;;;;;4938340;29;20023;-77
2021/06/05 07:46:17;;;;;;;15.48;10.65;;;19.80;87.20;;;;;;4937778;29;20067;-76
2021/06/05 07:48:42;;;;;;;34.17;26.50;;;19.80;85.30;;;;;;4939330;29;20504;-76
2021/06/05 07:51:09;;;;;;;29.77;24.10;;;19.80;87.10;;;;;;4923044;29;20376;-75
2021/06/05 07:53:35;;;;;;;32.55;24.27;;;19.70;87.30;;;;;;4922621;29;20040;-76
2021/06/05 07:56:02;;;;;;;34.78;25.73;;;19.70;88.10;;;;;;4941161;29;20039;-76
2021/06/05 07:58:31;;;;;;;30.42;23.77;;;19.70;88.40;;;;;;4940838;29;20047;-77
2021/06/05 08:00:57;;;;;;;33.23;25.00;;;19.70;88.30;;;;;;4922606;29;20048;-78
2021/06/05 08:03:22;;;;;;;22.45;15.30;;;19.60;88.20;;;;;;4922370;29;20027;-77
2021/06/05 08:05:48;;;;;;;23.42;18.08;;;19.60;88.50;;;;;;4922527;29;20471;-77
2021/06/05 08:08:15;;;;;;;23.40;18.17;;;19.60;88.50;;;;;;4922199;29;20024;-76
2021/06/05 08:10:41;;;;;;;11.60;8.07;;;19.60;88.80;;;;;;4941557;29;20032;-77
2021/06/05 08:13:08;;;;;;;26.52;19.02;;;19.60;87.30;;;;;;4956167;29;20063;-77
2021/06/05 08:15:36;;;;;;;21.75;18.55;;;19.60;87.60;;;;;;4942853;29;20453;-77
2021/06/05 08:18:03;;;;;;;26.27;20.33;;;19.70;87.90;;;;;;4920922;29;20027;-76
2021/06/05 08:20:34;;;;;;;25.98;19.58;;;19.70;88.10;;;;;;4936840;29;20488;-77
2021/06/05 08:23:00;;;;;;;28.85;20.60;;;19.70;87.80;;;;;;4921635;29;20059;-77
2021/06/05 08:25:26;;;;;;;21.23;15.77;;;19.70;88.20;;;;;;4939926;29;20448;-76
2021/06/05 08:27:53;;;;;;;23.00;18.10;;;19.60;87.70;;;;;;4921608;29;20020;-77
2021/06/05 08:30:29;;;;;;;25.70;19.10;;;19.50;87.80;;;;;;4938122;29;20040;-76
2021/06/05 08:32:54;;;;;;;26.38;18.98;;;19.50;88.20;;;;;;4938333;29;20131;-77
2021/06/05 08:35:20;;;;;;;21.33;15.85;;;19.40;88.00;;;;;;4936470;29;20164;-77
2021/06/05 08:37:46;;;;;;;23.15;17.75;;;19.40;88.30;;;;;;4937660;29;20027;-78
2021/06/05 08:40:15;;;;;;;28.15;19.75;;;19.40;88.60;;;;;;4920224;29;20035;-77
2021/06/05 08:42:48;;;;;;;16.58;13.35;;;19.40;88.60;;;;;;4919948;29;20043;-77
2021/06/05 08:45:18;;;;;;;18.17;13.38;;;19.50;88.40;;;;;;4920296;29;20028;-77
2021/06/05 08:47:44;;;;;;;22.02;17.30;;;19.50;88.60;;;;;;4920102;29;20058;-76
2021/06/05 08:50:19;;;;;;;20.00;16.08;;;19.60;88.50;;;;;;4920049;29;20107;-76
2021/06/05 08:52:55;;;;;;;20.30;16.17;;;19.60;88.60;;;;;;4919773;29;20032;-76
2021/06/05 08:55:29;;;;;;;12.82;9.90;;;19.70;88.40;;;;;;4935597;29;20027;-76
2021/06/05 08:58:00;;;;;;;12.35;9.40;;;19.90;87.50;;;;;;4936461;29;20052;-77
2021/06/05 09:00:36;;;;;;;11.32;9.00;;;20.10;86.60;;;;;;4936639;29;20027;-77
2021/06/05 09:03:18;;;;;;;15.23;12.52;;;20.20;86.50;;;;;;4937682;29;20034;-77
2021/06/05 09:06:25;;;;;;;9.15;6.82;;;20.20;85.80;;;;;;4921686;29;20056;-77
2021/06/05 09:08:51;;;;;;;10.38;7.15;;;20.30;84.40;;;;;;4916813;29;20032;-76
2021/06/05 09:11:17;;;;;;;8.15;6.10;;;20.30;84.30;;;;;;4937444;29;20042;-79
2021/06/05 09:13:43;;;;;;;11.07;8.43;;;20.30;84.40;;;;;;4920662;29;20476;-76
2021/06/05 09:16:23;;;;;;;10.88;8.75;;;20.40;84.10;;;;;;4919922;29;20027;-76
2021/06/05 09:18:55;;;;;;;11.20;7.82;;;20.50;83.40;;;;;;4937017;29;20032;-76
2021/06/05 09:21:32;;;;;;;10.23;7.57;;;20.60;83.10;;;;;;4936562;29;20028;-76
2021/06/05 09:24:24;;;;;;;10.02;6.90;;;20.60;83.10;;;;;;4935663;29;20031;-77
2021/06/05 09:27:11;;;;;;;7.57;5.30;;;20.70;82.30;;;;;;4935871;29;20028;-78
2021/06/05 09:29:56;;;;;;;10.10;6.43;;;20.70;82.70;;;;;;4936669;29;20091;-77
2021/06/05 09:32:34;;;;;;;8.57;5.50;;;20.80;81.00;;;;;;4935388;29;20028;-78
2021/06/05 09:35:06;;;;;;;8.10;6.43;;;20.80;79.40;;;;;;4935944;29;20038;-75
2021/06/05 09:37:39;;;;;;;7.43;5.53;;;20.80;79.10;;;;;;4936577;29;20027;-81
2021/06/05 09:40:26;;;;;;;9.07;7.30;;;20.90;79.20;;;;;;4935680;29;20437;-76
2021/06/05 09:43:18;;;;;;;8.43;5.43;;;20.90;79.70;;;;;;4919789;29;20036;-78
2021/06/05 09:45:47;;;;;;;11.18;8.27;;;20.90;79.50;;;;;;4919685;29;20032;-77
2021/06/05 09:48:43;;;;;;;6.15;3.90;;;20.80;79.40;;;;;;4936850;29;20028;-76
2021/06/05 09:51:27;;;;;;;10.43;8.73;;;20.80;78.60;;;;;;4935397;29;20070;-77
2021/06/05 09:54:29;;;;;;;9.27;6.25;;;20.80;79.20;;;;;;4934575;29;20032;-77
2021/06/05 09:57:27;;;;;;;8.85;4.97;;;20.80;79.30;;;;;;4898269;29;20139;-78
2021/06/05 10:00:05;;;;;;;11.57;7.18;;;20.80;79.00;;;;;;4935040;29;20034;-77
2021/06/05 10:02:31;;;;;;;7.93;6.03;;;20.90;79.30;;;;;;4935000;29;20392;-76
2021/06/05 10:05:33;;;;;;;9.50;6.50;;;21.00;78.00;;;;;;4935351;29;20468;-77
2021/06/05 10:08:17;;;;;;;9.07;5.18;;;21.20;77.10;;;;;;4927755;29;20118;-80
2021/06/05 10:10:45;;;;;;;7.97;4.82;;;21.30;77.50;;;;;;4923011;29;20125;-79
2021/06/05 10:13:24;;;;;;;8.95;6.55;;;21.30;75.40;;;;;;4940932;29;20027;-80
2021/06/05 10:16:06;;;;;;;9.55;7.90;;;21.40;76.50;;;;;;4941943;29;20047;-79
2021/06/05 10:18:53;;;;;;;7.88;5.88;;;21.30;76.50;;;;;;4950754;29;20040;-77
2021/06/05 10:21:32;;;;;;;10.27;8.15;;;21.20;77.80;;;;;;4921678;29;20040;-78
2021/06/05 10:24:21;;;;;;;7.60;4.95;;;21.20;78.40;;;;;;4921659;29;20031;-80
2021/06/05 10:26:47;;;;;;;9.88;7.05;;;21.10;77.20;;;;;;4934474;29;20028;-80
2021/06/05 10:29:17;;;;;;;10.75;6.82;;;21.00;77.40;;;;;;4919120;29;20020;-79
2021/06/05 10:31:44;;;;;;;8.90;5.50;;;20.90;76.70;;;;;;4936298;29;20031;-80
2021/06/05 10:34:22;;;;;;;8.98;5.85;;;21.00;76.70;;;;;;4919310;29;20043;-77
2021/06/05 10:36:51;;;;;;;8.38;5.75;;;21.10;77.50;;;;;;4935065;29;20020;-79
2021/06/05 10:39:23;;;;;;;7.35;5.05;;;21.20;76.50;;;;;;4922126;29;20042;-78
2021/06/05 10:41:57;;;;;;;6.55;4.55;;;21.30;75.90;;;;;;4943084;29;20056;-79
2021/06/05 10:44:23;;;;;;;7.85;4.80;;;21.30;75.10;;;;;;4943628;29;20055;-79
2021/06/05 10:47:18;;;;;;;8.68;7.07;;;21.30;74.90;;;;;;4924333;29;20024;-78
2021/06/05 10:50:27;;;;;;;7.53;4.70;;;21.30;75.20;;;;;;4935381;29;20252;-80
2021/06/05 10:52:59;;;;;;;6.60;5.20;;;21.30;75.10;;;;;;4934270;29;20115;-79
2021/06/05 10:55:31;;;;;;;5.80;4.00;;;21.30;74.90;;;;;;4933745;29;20499;-80
2021/06/05 10:58:08;;;;;;;5.93;4.43;;;21.20;75.30;;;;;;4936347;29;20058;-81
2021/06/05 11:00:51;;;;;;;6.55;4.50;;;21.20;75.70;;;;;;4934545;29;20520;-79
2021/06/05 11:03:23;;;;;;;10.40;7.65;;;21.30;75.50;;;;;;4918099;29;20032;-80
2021/06/05 11:06:14;;;;;;;9.20;6.57;;;21.20;75.60;;;;;;4938058;29;20095;-80
2021/06/05 11:08:44;;;;;;;12.90;9.65;;;21.20;76.80;;;;;;4915117;29;20169;-81
2021/06/05 11:11:19;;;;;;;13.23;9.68;;;21.00;77.60;;;;;;4922203;29;20019;-80
2021/06/05 11:13:45;;;;;;;10.00;8.65;;;20.80;78.30;;;;;;4939160;29;20027;-81
2021/06/05 11:16:19;;;;;;;11.65;8.02;;;20.60;79.30;;;;;;4939424;29;20103;-80
2021/06/05 11:18:46;;;;;;;9.90;8.02;;;20.40;79.90;;;;;;4921546;29;20027;-80
2021/06/05 11:21:26;;;;;;;10.52;7.85;;;20.30;80.50;;;;;;4921948;29;20035;-80
2021/06/05 11:24:00;;;;;;;11.13;8.15;;;20.40;80.60;;;;;;4938795;29;20023;-79
2021/06/05 11:26:35;;;;;;;11.93;10.60;;;20.30;80.80;;;;;;4937412;29;20028;-80
2021/06/05 11:29:25;;;;;;;10.85;8.85;;;20.40;80.90;;;;;;4938050;29;20033;-80
2021/06/05 11:31:55;;;;;;;;;;;20.40;81.00;;;;;;4939453;29;20135;-81
2021/06/05 11:34:43;;;;;;;7.47;5.87;;;20.60;77.80;;;;;;4941129;29;19910;-80
2021/06/05 11:37:15;;;;;;;8.48;4.72;;;20.80;77.20;;;;;;4937394;29;20378;-79
2021/06/05 11:40:09;;;;;;;7.53;5.95;;;20.90;76.90;;;;;;4937294;29;20496;-80
2021/06/05 11:42:55;;;;;;;6.22;4.55;;;21.00;77.50;;;;;;4921529;29;20032;-80
2021/06/05 11:45:24;;;;;;;9.05;7.15;;;21.00;75.60;;;;;;4937584;29;20114;-80
2021/06/05 11:47:53;;;;;;;13.73;9.98;;;21.10;76.20;;;;;;4937388;29;20055;-80
2021/06/05 11:50:31;;;;;;;10.98;8.98;;;20.90;76.40;;;;;;4938649;29;20079;-81
2021/06/05 11:53:31;;;;;;;12.45;9.85;;;20.90;77.20;;;;;;4937558;29;20166;-80
2021/06/05 11:56:03;;;;;;;;;;;20.80;76.90;;;;;;4937051;29;20037;-81
2021/06/05 11:58:32;;;;;;;9.65;7.75;;;20.80;76.20;;;;;;4921308;29;19914;-81
2021/06/05 12:01:03;;;;;;;5.90;4.10;;;20.80;76.30;;;;;;4938700;29;20091;-80
2021/06/05 12:04:04;;;;;;;10.30;7.40;;;20.80;76.00;;;;;;4938260;29;20028;-83
2021/06/05 12:06:32;;;;;;;;;;;20.80;76.80;;;;;;4920218;29;20064;-83
2021/06/05 12:09:20;;;;;;;8.15;6.45;;;20.80;77.90;;;;;;4926884;29;20379;-81
2021/06/05 12:11:59;;;;;;;9.77;7.20;;;20.70;77.00;;;;;;4925609;29;20027;-79
2021/06/05 12:14:45;;;;;;;9.25;7.07;;;20.70;77.70;;;;;;4921094;29;20032;-81
2021/06/05 12:17:35;;;;;;;6.25;4.55;;;20.70;77.30;;;;;;4937463;29;20446;-81
2021/06/05 12:20:03;;;;;;;7.72;5.57;;;20.70;77.00;;;;;;4940417;29;20104;-81
2021/06/05 12:22:31;;;;;;;12.68;9.55;;;20.70;77.60;;;;;;4941616;29;20039;-81
2021/06/05 12:24:58;;;;;;;5.93;4.55;;;20.80;77.30;;;;;;4938596;29;20072;-80
2021/06/05 12:27:38;;;;;;;10.38;7.68;;;20.90;75.80;;;;;;4920431;29;20042;-82
2021/06/05 12:30:12;;;;;;;8.70;6.25;;;21.00;76.70;;;;;;4920247;29;20031;-81
2021/06/05 12:32:40;;;;;;;9.85;5.40;;;21.00;75.90;;;;;;4937006;29;20034;-81
2021/06/05 12:35:21;;;;;;;8.40;5.47;;;21.00;75.20;;;;;;4920263;29;20463;-82
2021/06/05 12:37:55;;;;;;;10.45;9.02;;;21.00;75.30;;;;;;4921048;29;20095;-82
2021/06/05 12:40:34;;;;;;;7.80;5.82;;;21.10;75.00;;;;;;4920673;29;20465;-82
2021/06/05 12:43:03;;;;;;;7.38;6.43;;;21.10;74.90;;;;;;4936678;29;20024;-80
2021/06/05 12:45:32;;;;;;;6.95;5.95;;;21.10;74.80;;;;;;4920619;29;20027;-82
2021/06/05 12:47:59;;;;;;;7.22;5.55;;;21.10;75.50;;;;;;4936151;29;20058;-81
2021/06/05 12:50:29;;;;;;;6.75;4.43;;;21.10;75.10;;;;;;4937462;29;20084;-81